Time;durP1;ratioP1;P1;durP2;ratioP2;P2;SDS_P1;SDS_P2;PMS_P1;PMS_P2;Temp;Humidity;BMP_temperature;BMP_pressure;BME280_temperature;BME280_humidity;BME280_pressure;Samples;Min_cycle;Max_cycle;Signal;HPM_P1;HPM_P2
2022/04/09 00:02:18;;;;;;;;;;;;;;;;;;5057649;28;19908;-85
2022/04/09 00:04:44;;;;;;;;;;;;;;;;;;5057036;28;20357;-85
2022/04/09 00:07:09;;;;;;;;;;;;;;;;;;5057353;28;19954;-85
2022/04/09 00:09:34;;;;;;;;;;;;;;;;;;5056776;28;20121;-85
2022/04/09 00:11:59;;;;;;;;;;;;;;;;;;5057932;28;20493;-85
2022/04/09 00:14:24;;;;;;;;;;;;;;;;;;5057554;28;20003;-85
2022/04/09 00:16:49;;;;;;;;;;;;;;;;;;5057254;28;19966;-85
2022/04/09 00:19:14;;;;;;;;;;;;;;;;;;5057062;28;19936;-85
2022/04/09 00:21:40;;;;;;;;;;;;;;;;;;5075177;28;19908;-84
2022/04/09 00:24:05;;;;;;;;;;;;;;;;;;5057110;28;19913;-85
2022/04/09 00:26:30;;;;;;;;;;;;;;;;;;5057761;28;20368;-85
2022/04/09 00:28:55;;;;;;;;;;;;;;;;;;5056997;28;19924;-85
2022/04/09 00:31:20;;;;;;;;;;;;;;;;;;5057495;28;19916;-85
2022/04/09 00:33:45;;;;;;;;;;;;;;;;;;5057005;28;19952;-85
2022/04/09 00:36:10;;;;;;;;;;;;;;;;;;5082110;28;19915;-85
2022/04/09 00:38:35;;;;;;;;;;;;;;;;;;5074792;28;19909;-85
2022/04/09 00:41:00;;;;;;;;;;;;;;;;;;5057251;28;19912;-85
2022/04/09 00:43:26;;;;;;;;;;;;;;;;;;5056577;28;19955;-85
2022/04/09 00:45:51;;;;;;;;;;;;;;;;;;5056656;28;20280;-85
2022/04/09 00:48:16;;;;;;;;;;;;;;;;;;5056339;28;20383;-85
2022/04/09 00:50:41;;;;;;;;;;;;;;;;;;5056685;28;19908;-85
2022/04/09 00:53:07;;;;;;;;;;;;;;;;;;5056269;28;19939;-85
2022/04/09 00:58:17;;;;;;;;;;;;;;;;;;5074370;28;19935;-85
2022/04/09 01:00:42;;;;;;;;;;;;;;;;;;5056267;28;19908;-85
2022/04/09 01:03:07;;;;;;;;;;;;;;;;;;5074112;28;19908;-85
2022/04/09 01:05:33;;;;;;;;;;;;;;;;;;5056337;28;20326;-85
2022/04/09 01:07:58;;;;;;;;;;;;;;;;;;5056491;28;19908;-85
2022/04/09 01:10:23;;;;;;;;;;;;;;;;;;5056268;28;20367;-85
2022/04/09 01:12:48;;;;;;;;;;;;;;;;;;5056611;28;19916;-85
2022/04/09 01:15:13;;;;;;;;;;;;;;;;;;5056517;28;19916;-85
2022/04/09 01:17:38;;;;;;;;;;;;;;;;;;5056852;28;19928;-85
2022/04/09 01:20:03;;;;;;;;;;;;;;;;;;5074669;28;19943;-85
2022/04/09 01:22:28;;;;;;;;;;;;;;;;;;5073962;28;19909;-85
2022/04/09 01:24:53;;;;;;;;;;;;;;;;;;5056641;28;19912;-85
2022/04/09 01:27:19;;;;;;;;;;;;;;;;;;5056840;28;19978;-85
2022/04/09 01:29:44;;;;;;;;;;;;;;;;;;5074235;28;19912;-85
2022/04/09 01:32:09;;;;;;;;;;;;;;;;;;5056387;28;19909;-85
2022/04/09 01:34:34;;;;;;;;;;;;;;;;;;5056040;28;19908;-85
2022/04/09 01:36:59;;;;;;;;;;;;;;;;;;5056383;28;20260;-84
2022/04/09 01:39:24;;;;;;;;;;;;;;;;;;5074390;28;19930;-85
2022/04/09 01:41:49;;;;;;;;;;;;;;;;;;5055663;28;19954;-85
2022/04/09 01:44:14;;;;;;;;;;;;;;;;;;5056239;28;19962;-85
2022/04/09 01:46:44;;;;;;;;;;;;;;;;;;5056322;28;19962;-84
2022/04/09 01:49:09;;;;;;;;;;;;;;;;;;5073866;28;19912;-85
2022/04/09 01:51:34;;;;;;;;;;;;;;;;;;5055985;28;20326;-85
2022/04/09 01:54:01;;;;;;;;;;;;;;;;;;5055984;28;20463;-85
2022/04/09 01:56:26;;;;;;;;;;;;;;;;;;5055952;28;19934;-85
2022/04/09 01:58:52;;;;;;;;;;;;;;;;;;5056150;28;19950;-85
2022/04/09 02:01:17;;;;;;;;;;;;;;;;;;5056443;28;19908;-85
2022/04/09 02:03:42;;;;;;;;;;;;;;;;;;5055871;28;19931;-85
2022/04/09 02:06:07;;;;;;;;;;;;;;;;;;5056127;28;19913;-85
2022/04/09 02:08:32;;;;;;;;;;;;;;;;;;5056355;28;19909;-85
2022/04/09 02:10:57;;;;;;;;;;;;;;;;;;5056056;28;19909;-85
2022/04/09 02:13:22;;;;;;;;;;;;;;;;;;5056213;28;19908;-85
2022/04/09 02:15:47;;;;;;;;;;;;;;;;;;5055918;28;19932;-85
2022/04/09 02:18:12;;;;;;;;;;;;;;;;;;5073898;28;19909;-85
2022/04/09 02:20:38;;;;;;;;;;;;;;;;;;5056349;28;19908;-85
2022/04/09 02:23:03;;;;;;;;;;;;;;;;;;5056256;28;19909;-85
2022/04/09 02:25:28;;;;;;;;;;;;;;;;;;5074438;28;20010;-85
2022/04/09 02:27:53;;;;;;;;;;;;;;;;;;5056186;28;19931;-85
2022/04/09 02:30:18;;;;;;;;;;;;;;;;;;5055888;28;20375;-85
2022/04/09 02:32:43;;;;;;;;;;;;;;;;;;5056023;28;20356;-85
2022/04/09 02:35:08;;;;;;;;;;;;;;;;;;5059951;28;19912;-85
2022/04/09 02:37:34;;;;;;;;;;;;;;;;;;5060288;28;19956;-85
2022/04/09 02:39:59;;;;;;;;;;;;;;;;;;5077771;28;19940;-85
2022/04/09 02:42:24;;;;;;;;;;;;;;;;;;5059535;28;19915;-85
2022/04/09 02:44:49;;;;;;;;;;;;;;;;;;5059970;28;20364;-85
2022/04/09 02:47:14;;;;;;;;;;;;;;;;;;5059363;28;19942;-85
2022/04/09 02:49:39;;;;;;;;;;;;;;;;;;5059812;28;19919;-85
2022/04/09 02:52:05;;;;;;;;;;;;;;;;;;5059322;28;19909;-85
2022/04/09 02:54:30;;;;;;;;;;;;;;;;;;5059228;28;19908;-84
2022/04/09 02:56:55;;;;;;;;;;;;;;;;;;5059904;28;20437;-85
2022/04/09 02:59:20;;;;;;;;;;;;;;;;;;5059642;28;19914;-85
2022/04/09 03:01:46;;;;;;;;;;;;;;;;;;5059565;28;19912;-85
2022/04/09 03:04:12;;;;;;;;;;;;;;;;;;5059393;28;19913;-85
2022/04/09 03:06:37;;;;;;;;;;;;;;;;;;5059378;28;20367;-85
2022/04/09 03:09:02;;;;;;;;;;;;;;;;;;5059343;28;19958;-85
2022/04/09 03:11:27;;;;;;;;;;;;;;;;;;5059190;28;19908;-85
2022/04/09 03:13:52;;;;;;;;;;;;;;;;;;5059479;28;19908;-85
2022/04/09 03:16:17;;;;;;;;;;;;;;;;;;5058902;28;19908;-85
2022/04/09 03:18:42;;;;;;;;;;;;;;;;;;5058503;28;19909;-85
2022/04/09 03:21:07;;;;;;;;;;;;;;;;;;5058961;28;19999;-85
2022/04/09 03:23:33;;;;;;;;;;;;;;;;;;5058751;28;19935;-85
2022/04/09 03:25:58;;;;;;;;;;;;;;;;;;5058843;28;19908;-85
2022/04/09 03:28:23;;;;;;;;;;;;;;;;;;5058348;28;19919;-85
2022/04/09 03:30:48;;;;;;;;;;;;;;;;;;5077003;28;20315;-85
2022/04/09 03:33:13;;;;;;;;;;;;;;;;;;5076953;28;20360;-85
2022/04/09 03:35:38;;;;;;;;;;;;;;;;;;5059205;28;19909;-85
2022/04/09 03:38:03;;;;;;;;;;;;;;;;;;5059224;28;19916;-85
2022/04/09 03:40:28;;;;;;;;;;;;;;;;;;5076642;28;19915;-85
2022/04/09 03:42:53;;;;;;;;;;;;;;;;;;5058865;28;19908;-85
2022/04/09 03:45:19;;;;;;;;;;;;;;;;;;5057552;28;19930;-85
2022/04/09 03:47:44;;;;;;;;;;;;;;;;;;5059040;28;19916;-85
2022/04/09 03:50:09;;;;;;;;;;;;;;;;;;5076436;28;19912;-85
2022/04/09 03:52:34;;;;;;;;;;;;;;;;;;5076800;28;19915;-85
2022/04/09 03:54:59;;;;;;;;;;;;;;;;;;5077229;28;19950;-85
2022/04/09 03:57:24;;;;;;;;;;;;;;;;;;5058627;28;19970;-85
2022/04/09 03:59:54;;;;;;;;;;;;;;;;;;5076767;28;20003;-85
2022/04/09 04:02:19;;;;;;;;;;;;;;;;;;5058425;28;20415;-85
2022/04/09 04:04:44;;;;;;;;;;;;;;;;;;5058672;28;20383;-85
2022/04/09 04:07:09;;;;;;;;;;;;;;;;;;5058603;28;19958;-85
2022/04/09 04:09:34;;;;;;;;;;;;;;;;;;5058359;28;19917;-85
2022/04/09 04:11:59;;;;;;;;;;;;;;;;;;5058330;28;19916;-85
2022/04/09 04:14:25;;;;;;;;;;;;;;;;;;5076292;28;19909;-85
2022/04/09 04:16:50;;;;;;;;;;;;;;;;;;5058125;28;19951;-85
2022/04/09 04:19:16;;;;;;;;;;;;;;;;;;5058236;28;19913;-85
2022/04/09 04:21:41;;;;;;;;;;;;;;;;;;5058608;28;19912;-85
2022/04/09 04:24:06;;;;;;;;;;;;;;;;;;5058278;28;19913;-85
2022/04/09 04:26:31;;;;;;;;;;;;;;;;;;5076348;28;19913;-85
2022/04/09 04:28:56;;;;;;;;;;;;;;;;;;5058215;28;19916;-85
2022/04/09 04:31:21;;;;;;;;;;;;;;;;;;5058166;28;19908;-85
2022/04/09 04:33:46;;;;;;;;;;;;;;;;;;5057612;28;20392;-85
2022/04/09 04:36:11;;;;;;;;;;;;;;;;;;5057958;28;19916;-85
2022/04/09 04:38:36;;;;;;;;;;;;;;;;;;5057989;28;19908;-85
2022/04/09 04:41:04;;;;;;;;;;;;;;;;;;5057954;28;19943;-85
2022/04/09 04:43:29;;;;;;;;;;;;;;;;;;5057235;28;19915;-85
2022/04/09 04:45:54;;;;;;;;;;;;;;;;;;5057717;28;19912;-85
2022/04/09 04:48:22;;;;;;;;;;;;;;;;;;5058138;28;19909;-85
2022/04/09 04:50:48;;;;;;;;;;;;;;;;;;5057840;28;19917;-85
2022/04/09 04:53:13;;;;;;;;;;;;;;;;;;5057392;28;19919;-85
2022/04/09 04:55:38;;;;;;;;;;;;;;;;;;5057378;28;20357;-85
2022/04/09 04:58:03;;;;;;;;;;;;;;;;;;5057858;28;19909;-85
2022/04/09 05:00:28;;;;;;;;;;;;;;;;;;5057654;28;19948;-85
2022/04/09 05:02:53;;;;;;;;;;;;;;;;;;5057257;28;19970;-85
2022/04/09 05:05:18;;;;;;;;;;;;;;;;;;5057989;28;20280;-85
2022/04/09 05:07:43;;;;;;;;;;;;;;;;;;5075930;28;19916;-85
2022/04/09 05:10:08;;;;;;;;;;;;;;;;;;5057533;28;19912;-85
2022/04/09 05:12:34;;;;;;;;;;;;;;;;;;5057209;28;20002;-85
2022/04/09 05:14:59;;;;;;;;;;;;;;;;;;5076005;28;19916;-85
2022/04/09 05:17:24;;;;;;;;;;;;;;;;;;5057749;28;19912;-85
2022/04/09 05:19:49;;;;;;;;;;;;;;;;;;5057613;28;19912;-85
2022/04/09 05:22:14;;;;;;;;;;;;;;;;;;5056903;28;19908;-85
2022/04/09 05:24:39;;;;;;;;;;;;;;;;;;5057472;28;19908;-85
2022/04/09 05:27:04;;;;;;;;;;;;;;;;;;5074928;28;19908;-85
2022/04/09 05:29:29;;;;;;;;;;;;;;;;;;5057198;28;19912;-85
2022/04/09 05:31:54;;;;;;;;;;;;;;;;;;5056509;28;19908;-85
2022/04/09 05:34:19;;;;;;;;;;;;;;;;;;5056857;28;19939;-85
2022/04/09 05:36:45;;;;;;;;;;;;;;;;;;5074670;28;19913;-85
2022/04/09 05:39:11;;;;;;;;;;;;;;;;;;5057061;28;19930;-85
2022/04/09 05:41:36;;;;;;;;;;;;;;;;;;5056810;28;19922;-84
2022/04/09 05:44:01;;;;;;;;;;;;;;;;;;5056822;28;19995;-85
2022/04/09 05:46:26;;;;;;;;;;;;;;;;;;5056860;28;19978;-84
2022/04/09 05:48:51;;;;;;;;;;;;;;;;;;5057238;28;19959;-85
2022/04/09 05:51:16;;;;;;;;;;;;;;;;;;5057178;28;19958;-85
2022/04/09 05:53:42;;;;;;;;;;;;;;;;;;5074660;28;19904;-85
2022/04/09 05:56:07;;;;;;;;;;;;;;;;;;5057115;28;20362;-84
2022/04/09 05:58:32;;;;;;;;;;;;;;;;;;5075394;28;19909;-85
2022/04/09 06:01:00;;;;;;;;;;;;;;;;;;5056897;28;19991;-85
2022/04/09 06:03:25;;;;;;;;;;;;;;;;;;5056371;28;19916;-85
2022/04/09 06:05:50;;;;;;;;;;;;;;;;;;5056586;28;19909;-85
2022/04/09 06:08:15;;;;;;;;;;;;;;;;;;5073921;28;19908;-85
2022/04/09 06:10:40;;;;;;;;;;;;;;;;;;5056586;28;19923;-85
2022/04/09 06:13:05;;;;;;;;;;;;;;;;;;5056167;28;20058;-85
2022/04/09 06:15:31;;;;;;;;;;;;;;;;;;5056104;28;19991;-85
2022/04/09 06:17:56;;;;;;;;;;;;;;;;;;5055462;28;20027;-85
2022/04/09 06:20:21;;;;;;;;;;;;;;;;;;5055960;28;20015;-85
2022/04/09 06:22:49;;;;;;;;;;;;;;;;;;5056118;28;20019;-85
2022/04/09 06:25:14;;;;;;;;;;;;;;;;;;5056506;28;19916;-85
2022/04/09 06:27:39;;;;;;;;;;;;;;;;;;5056235;28;19912;-85
2022/04/09 06:30:04;;;;;;;;;;;;;;;;;;5056565;28;19958;-85
2022/04/09 06:32:29;;;;;;;;;;;;;;;;;;5056357;28;19909;-85
2022/04/09 06:34:55;;;;;;;;;;;;;;;;;;5056773;28;20349;-85
2022/04/09 06:37:20;;;;;;;;;;;;;;;;;;5056454;28;19915;-85
2022/04/09 06:39:45;;;;;;;;;;;;;;;;;;5055995;28;19912;-85
2022/04/09 06:42:10;;;;;;;;;;;;;;;;;;5055914;28;20006;-85
2022/04/09 06:44:35;;;;;;;;;;;;;;;;;;5056973;28;19951;-85
2022/04/09 06:47:00;;;;;;;;;;;;;;;;;;5056627;28;19924;-84
2022/04/09 06:49:25;;;;;;;;;;;;;;;;;;5056190;28;19920;-85
2022/04/09 06:51:50;;;;;;;;;;;;;;;;;;5074105;28;19908;-84
2022/04/09 06:54:15;;;;;;;;;;;;;;;;;;5063101;28;20287;-85
2022/04/09 06:56:41;;;;;;;;;;;;;;;;;;5076955;28;19913;-85
2022/04/09 06:59:06;;;;;;;;;;;;;;;;;;5098715;28;20049;-85
2022/04/09 07:01:31;;;;;;;;;;;;;;;;;;5094935;28;19914;-85
2022/04/09 07:03:56;;;;;;;;;;;;;;;;;;5071915;28;19912;-85
2022/04/09 07:06:21;;;;;;;;;;;;;;;;;;5090154;28;19941;-84
2022/04/09 07:08:49;;;;;;;;;;;;;;;;;;5081632;28;19916;-85
2022/04/09 07:11:14;;;;;;;;;;;;;;;;;;5085692;28;19944;-85
2022/04/09 07:13:39;;;;;;;;;;;;;;;;;;5074359;28;19916;-85
2022/04/09 07:16:04;;;;;;;;;;;;;;;;;;5076746;28;19964;-84
2022/04/09 07:18:30;;;;;;;;;;;;;;;;;;5078353;28;19916;-84
2022/04/09 07:20:55;;;;;;;;;;;;;;;;;;5091422;28;20393;-85
2022/04/09 07:23:20;;;;;;;;;;;;;;;;;;5096199;28;19912;-85
2022/04/09 07:25:45;;;;;;;;;;;;;;;;;;5117391;28;19912;-85
2022/04/09 07:28:10;;;;;;;;;;;;;;;;;;5101113;28;19908;-85
2022/04/09 07:30:35;;;;;;;;;;;;;;;;;;5100051;28;19960;-84
2022/04/09 07:33:00;;;;;;;;;;;;;;;;;;5099023;28;19911;-85
2022/04/09 07:35:26;;;;;;;;;;;;;;;;;;5093387;28;19998;-85
2022/04/09 07:37:51;;;;;;;;;;;;;;;;;;5094140;28;20017;-85
2022/04/09 07:40:16;;;;;;;;;;;;;;;;;;5070473;28;19920;-85
2022/04/09 07:42:42;;;;;;;;;;;;;;;;;;5076273;28;19915;-85
2022/04/09 07:45:07;;;;;;;;;;;;;;;;;;5077800;28;20013;-84
2022/04/09 07:47:32;;;;;;;;;;;;;;;;;;5077746;28;19926;-84
2022/04/09 07:49:57;;;;;;;;;;;;;;;;;;5096433;28;19913;-85
2022/04/09 07:52:22;;;;;;;;;;;;;;;;;;5077695;28;19919;-85
2022/04/09 07:54:47;;;;;;;;;;;;;;;;;;5078048;28;19908;-85
2022/04/09 07:57:12;;;;;;;;;;;;;;;;;;5077908;28;20402;-85
2022/04/09 07:59:37;;;;;;;;;;;;;;;;;;5077656;28;19958;-84
2022/04/09 08:02:02;;;;;;;;;;;;;;;;;;5077533;28;19951;-85
2022/04/09 08:04:27;;;;;;;;;;;;;;;;;;5077517;28;20007;-85
2022/04/09 08:06:53;;;;;;;;;;;;;;;;;;5077511;28;20002;-84
2022/04/09 08:09:18;;;;;;;;;;;;;;;;;;5077757;28;19912;-85
2022/04/09 08:11:43;;;;;;;;;;;;;;;;;;5076715;28;20398;-84
2022/04/09 08:14:08;;;;;;;;;;;;;;;;;;5074128;28;19927;-84
2022/04/09 08:16:33;;;;;;;;;;;;;;;;;;5082435;28;19919;-84
2022/04/09 08:19:00;;;;;;;;;;;;;;;;;;5094563;28;20270;-84
2022/04/09 08:21:26;;;;;;;;;;;;;;;;;;5077480;28;19969;-84
2022/04/09 08:23:51;;;;;;;;;;;;;;;;;;5078558;28;20325;-85
2022/04/09 08:26:16;;;;;;;;;;;;;;;;;;5087236;28;19912;-85
2022/04/09 08:28:41;;;;;;;;;;;;;;;;;;5083346;28;19920;-85
2022/04/09 08:31:07;;;;;;;;;;;;;;;;;;5099021;28;19920;-85
2022/04/09 08:33:33;;;;;;;;;;;;;;;;;;5076637;28;20245;-85
2022/04/09 08:35:58;;;;;;;;;;;;;;;;;;5100685;28;19919;-85
2022/04/09 08:38:23;;;;;;;;;;;;;;;;;;5082932;28;19912;-85
2022/04/09 08:40:48;;;;;;;;;;;;;;;;;;5080604;28;20402;-86
2022/04/09 08:43:14;;;;;;;;;;;;;;;;;;5077165;28;19910;-85
2022/04/09 08:45:42;;;;;;;;;;;;;;;;;;5077037;28;19959;-86
2022/04/09 08:48:07;;;;;;;;;;;;;;;;;;5079812;28;19945;-85
2022/04/09 08:50:32;;;;;;;;;;;;;;;;;;5088405;28;19916;-85
2022/04/09 08:52:57;;;;;;;;;;;;;;;;;;5095348;28;19908;-86
2022/04/09 08:55:22;;;;;;;;;;;;;;;;;;5082320;28;19918;-86
2022/04/09 08:57:48;;;;;;;;;;;;;;;;;;5077530;28;19934;-84
2022/04/09 09:00:13;;;;;;;;;;;;;;;;;;5088021;28;19914;-84
2022/04/09 09:02:38;;;;;;;;;;;;;;;;;;5075948;28;20375;-85
2022/04/09 09:05:03;;;;;;;;;;;;;;;;;;5076585;28;19962;-85
2022/04/09 09:07:28;;;;;;;;;;;;;;;;;;5080432;28;20059;-85
2022/04/09 09:09:54;;;;;;;;;;;;;;;;;;5076367;28;19963;-86
2022/04/09 09:12:19;;;;;;;;;;;;;;;;;;5072749;28;19928;-85
2022/04/09 09:14:44;;;;;;;;;;;;;;;;;;5073114;28;19913;-86
2022/04/09 09:17:09;;;;;;;;;;;;;;;;;;5090419;28;20666;-85
2022/04/09 09:19:34;;;;;;;;;;;;;;;;;;5072557;28;19995;-85
2022/04/09 09:22:01;;;;;;;;;;;;;;;;;;5081114;28;19913;-85
2022/04/09 09:24:28;;;;;;;;;;;;;;;;;;5075142;28;19916;-86
2022/04/09 09:26:53;;;;;;;;;;;;;;;;;;5070148;28;20376;-85
2022/04/09 09:29:19;;;;;;;;;;;;;;;;;;5095789;28;20391;-86
2022/04/09 09:31:44;;;;;;;;;;;;;;;;;;5061631;28;19916;-86
2022/04/09 09:34:09;;;;;;;;;;;;;;;;;;5082006;28;19926;-86
2022/04/09 09:36:36;;;;;;;;;;;;;;;;;;5063523;28;19918;-86
2022/04/09 09:39:01;;;;;;;;;;;;;;;;;;5063907;28;19938;-85
2022/04/09 09:41:26;;;;;;;;;;;;;;;;;;5081161;28;19960;-86
2022/04/09 09:43:52;;;;;;;;;;;;;;;;;;5082254;28;19912;-85
2022/04/09 09:46:17;;;;;;;;;;;;;;;;;;5080569;28;19916;-86
2022/04/09 09:48:42;;;;;;;;;;;;;;;;;;5089018;28;19907;-86
2022/04/09 09:51:07;;;;;;;;;;;;;;;;;;5076840;28;20325;-87
2022/04/09 09:53:32;;;;;;;;;;;;;;;;;;5072522;28;19912;-86
2022/04/09 09:55:58;;;;;;;;;;;;;;;;;;5098853;28;19912;-86
2022/04/09 09:58:24;;;;;;;;;;;;;;;;;;5068937;28;19959;-86
2022/04/09 10:00:49;;;;;;;;;;;;;;;;;;5070917;28;19947;-87
2022/04/09 10:03:14;;;;;;;;;;;;;;;;;;5083736;28;19924;-86
2022/04/09 10:05:39;;;;;;;;;;;;;;;;;;5086905;28;19912;-87
2022/04/09 10:08:04;;;;;;;;;;;;;;;;;;5070694;28;19912;-86
2022/04/09 10:10:29;;;;;;;;;;;;;;;;;;5085363;28;20363;-86
2022/04/09 10:12:55;;;;;;;;;;;;;;;;;;5066011;28;19920;-85
2022/04/09 10:15:20;;;;;;;;;;;;;;;;;;5072196;28;19912;-86
2022/04/09 10:17:45;;;;;;;;;;;;;;;;;;5074299;28;19916;-86
2022/04/09 10:20:10;;;;;;;;;;;;;;;;;;5092192;28;19919;-86
2022/04/09 10:22:35;;;;;;;;;;;;;;;;;;5081031;28;19912;-85
2022/04/09 10:25:01;;;;;;;;;;;;;;;;;;5080824;28;19916;-86
2022/04/09 10:27:26;;;;;;;;;;;;;;;;;;5084955;28;19924;-85
2022/04/09 10:29:51;;;;;;;;;;;;;;;;;;5074773;28;20371;-84
2022/04/09 10:32:16;;;;;;;;;;;;;;;;;;5063136;28;19912;-84
2022/04/09 10:34:41;;;;;;;;;;;;;;;;;;5082619;28;19913;-85
2022/04/09 10:37:08;;;;;;;;;;;;;;;;;;5091819;28;20003;-84
2022/04/09 10:39:39;;;;;;;;;;;;;;;;;;5078757;28;19966;-85
2022/04/09 10:42:04;;;;;;;;;;;;;;;;;;5086699;28;20411;-86
2022/04/09 10:44:29;;;;;;;;;;;;;;;;;;5081131;28;19959;-85
2022/04/09 10:46:54;;;;;;;;;;;;;;;;;;5074601;28;19920;-85
2022/04/09 10:49:19;;;;;;;;;;;;;;;;;;5090737;28;20612;-85
2022/04/09 10:51:45;;;;;;;;;;;;;;;;;;5074625;28;19942;-85
2022/04/09 10:54:10;;;;;;;;;;;;;;;;;;5094228;28;20006;-85
2022/04/09 10:56:35;;;;;;;;;;;;;;;;;;5078509;28;20371;-85
2022/04/09 10:59:00;;;;;;;;;;;;;;;;;;5077921;28;19948;-84
2022/04/09 11:01:26;;;;;;;;;;;;;;;;;;5078411;28;19955;-85
2022/04/09 11:03:51;;;;;;;;;;;;;;;;;;5096337;28;20298;-85
2022/04/09 11:06:16;;;;;;;;;;;;;;;;;;5078582;28;19912;-85
2022/04/09 11:08:42;;;;;;;;;;;;;;;;;;5096962;28;19908;-85
2022/04/09 11:11:07;;;;;;;;;;;;;;;;;;5078333;28;19962;-84
2022/04/09 11:13:32;;;;;;;;;;;;;;;;;;5096557;28;19912;-84
2022/04/09 11:15:57;;;;;;;;;;;;;;;;;;5096707;28;19956;-84
2022/04/09 11:18:22;;;;;;;;;;;;;;;;;;5078813;28;19999;-85
2022/04/09 11:20:47;;;;;;;;;;;;;;;;;;5078361;28;20349;-85
2022/04/09 11:23:13;;;;;;;;;;;;;;;;;;5073590;28;19912;-86
2022/04/09 11:25:38;;;;;;;;;;;;;;;;;;5077177;28;19912;-85
2022/04/09 11:28:03;;;;;;;;;;;;;;;;;;5096437;28;19916;-85
2022/04/09 11:30:28;;;;;;;;;;;;;;;;;;5096206;28;19934;-85
2022/04/09 11:32:53;;;;;;;;;;;;;;;;;;5077799;28;20309;-85
2022/04/09 11:35:24;;;;;;;;;;;;;;;;;;5078310;28;19915;-85
2022/04/09 11:37:49;;;;;;;;;;;;;;;;;;5077379;28;19999;-84
2022/04/09 11:40:14;;;;;;;;;;;;;;;;;;5095571;28;19947;-85
2022/04/09 11:42:39;;;;;;;;;;;;;;;;;;5077289;28;19923;-84
2022/04/09 11:45:06;;;;;;;;;;;;;;;;;;5077802;28;19908;-85
2022/04/09 11:47:31;;;;;;;;;;;;;;;;;;5081993;28;19923;-85
2022/04/09 11:49:56;;;;;;;;;;;;;;;;;;5084092;28;19912;-85
2022/04/09 11:52:21;;;;;;;;;;;;;;;;;;5071841;28;19916;-85
2022/04/09 11:54:46;;;;;;;;;;;;;;;;;;5091105;28;19912;-85
2022/04/09 11:57:11;;;;;;;;;;;;;;;;;;5077138;28;19908;-85
2022/04/09 11:59:36;;;;;;;;;;;;;;;;;;5076739;28;19912;-85
2022/04/09 12:02:02;;;;;;;;;;;;;;;;;;5096742;28;20007;-85
2022/04/09 12:04:27;;;;;;;;;;;;;;;;;;5083016;28;20377;-85
2022/04/09 12:06:52;;;;;;;;;;;;;;;;;;5083529;28;19993;-83
2022/04/09 12:09:17;;;;;;;;;;;;;;;;;;5075652;28;20423;-85
2022/04/09 12:11:42;;;;;;;;;;;;;;;;;;5074186;28;19920;-86
2022/04/09 12:14:08;;;;;;;;;;;;;;;;;;5075759;28;19983;-86
2022/04/09 12:16:33;;;;;;;;;;;;;;;;;;5084485;28;20498;-85
2022/04/09 12:18:58;;;;;;;;;;;;;;;;;;5104910;28;19907;-85
2022/04/09 12:21:23;;;;;;;;;;;;;;;;;;5087923;28;19912;-85
2022/04/09 12:23:48;;;;;;;;;;;;;;;;;;5077009;28;19920;-85
2022/04/09 12:26:13;;;;;;;;;;;;;;;;;;5098103;28;19912;-85
2022/04/09 12:28:38;;;;;;;;;;;;;;;;;;5081450;28;19953;-85
2022/04/09 12:31:07;;;;;;;;;;;;;;;;;;5074060;28;20295;-84
2022/04/09 12:33:32;;;;;;;;;;;;;;;;;;5073477;28;19912;-86
2022/04/09 12:35:58;;;;;;;;;;;;;;;;;;5090671;28;19916;-86
2022/04/09 12:38:23;;;;;;;;;;;;;;;;;;5078173;28;19919;-85
2022/04/09 12:40:48;;;;;;;;;;;;;;;;;;5087364;28;19912;-85
2022/04/09 12:43:13;;;;;;;;;;;;;;;;;;5097603;28;19919;-85
2022/04/09 12:45:39;;;;;;;;;;;;;;;;;;5079927;28;19912;-85
2022/04/09 12:48:10;;;;;;;;;;;;;;;;;;5100352;28;20260;-86
2022/04/09 12:50:35;;;;;;;;;;;;;;;;;;5093429;28;19916;-86
2022/04/09 12:53:00;;;;;;;;;;;;;;;;;;5093400;28;19912;-86
2022/04/09 12:55:25;;;;;;;;;;;;;;;;;;5076355;28;19918;-85
2022/04/09 12:57:50;;;;;;;;;;;;;;;;;;5098542;28;19938;-86
2022/04/09 13:00:16;;;;;;;;;;;;;;;;;;5075493;28;19958;-86
2022/04/09 13:02:41;;;;;;;;;;;;;;;;;;5090082;28;19912;-85
2022/04/09 13:05:06;;;;;;;;;;;;;;;;;;5074107;28;19923;-85
2022/04/09 13:07:31;;;;;;;;;;;;;;;;;;5086726;28;20410;-86
2022/04/09 13:09:56;;;;;;;;;;;;;;;;;;5099510;28;19916;-86
2022/04/09 13:12:21;;;;;;;;;;;;;;;;;;5093306;28;19972;-86
2022/04/09 13:14:46;;;;;;;;;;;;;;;;;;5076040;28;20454;-85
2022/04/09 13:17:11;;;;;;;;;;;;;;;;;;5075391;28;19908;-85
2022/04/09 13:19:37;;;;;;;;;;;;;;;;;;5075575;28;19908;-85
2022/04/09 13:22:02;;;;;;;;;;;;;;;;;;5074281;28;20010;-85
2022/04/09 13:24:27;;;;;;;;;;;;;;;;;;5067552;28;20423;-85
2022/04/09 13:26:52;;;;;;;;;;;;;;;;;;5064530;28;19916;-85
2022/04/09 13:29:17;;;;;;;;;;;;;;;;;;5075462;28;19916;-85
2022/04/09 13:31:42;;;;;;;;;;;;;;;;;;5075572;28;19920;-85
2022/04/09 13:34:11;;;;;;;;;;;;;;;;;;5080628;28;20484;-85
2022/04/09 13:36:37;;;;;;;;;;;;;;;;;;5075750;28;20402;-85
2022/04/09 13:39:02;;;;;;;;;;;;;;;;;;5091969;28;19946;-85
2022/04/09 13:41:28;;;;;;;;;;;;;;;;;;5075677;28;19959;-85
2022/04/09 13:43:54;;;;;;;;;;;;;;;;;;5082883;28;19969;-86
2022/04/09 13:46:19;;;;;;;;;;;;;;;;;;5075216;28;19920;-87
2022/04/09 13:48:45;;;;;;;;;;;;;;;;;;5081450;28;19916;-86
2022/04/09 13:51:12;;;;;;;;;;;;;;;;;;5077048;28;19921;-85
2022/04/09 13:53:37;;;;;;;;;;;;;;;;;;5079485;28;19912;-85
2022/04/09 13:56:04;;;;;;;;;;;;;;;;;;5075625;28;19919;-86
2022/04/09 13:58:29;;;;;;;;;;;;;;;;;;5085100;28;19916;-86
2022/04/09 14:00:54;;;;;;;;;;;;;;;;;;5112270;28;19918;-85
2022/04/09 14:03:19;;;;;;;;;;;;;;;;;;5075007;28;19919;-86
2022/04/09 14:05:44;;;;;;;;;;;;;;;;;;5102338;28;19918;-86
2022/04/09 14:08:09;;;;;;;;;;;;;;;;;;5079987;28;20270;-85
2022/04/09 14:10:35;;;;;;;;;;;;;;;;;;5093554;28;19951;-85
2022/04/09 14:13:00;;;;;;;;;;;;;;;;;;5073213;28;20470;-84
2022/04/09 14:15:25;;;;;;;;;;;;;;;;;;5073110;28;19981;-85
2022/04/09 14:17:51;;;;;;;;;;;;;;;;;;5066483;28;20428;-86
2022/04/09 14:20:17;;;;;;;;;;;;;;;;;;5066463;28;19912;-86
2022/04/09 14:22:42;;;;;;;;;;;;;;;;;;5068716;28;19919;-86
2022/04/09 14:25:07;;;;;;;;;;;;;;;;;;5069913;28;19924;-86
2022/04/09 14:27:32;;;;;;;;;;;;;;;;;;5079814;28;19913;-85
2022/04/09 14:29:57;;;;;;;;;;;;;;;;;;5066858;28;20287;-84
2022/04/09 14:32:22;;;;;;;;;;;;;;;;;;5073342;28;19948;-85
2022/04/09 14:34:48;;;;;;;;;;;;;;;;;;5090204;28;19915;-85
2022/04/09 14:37:13;;;;;;;;;;;;;;;;;;5067669;28;19913;-85
2022/04/09 14:39:38;;;;;;;;;;;;;;;;;;5065977;28;19908;-85
2022/04/09 14:42:04;;;;;;;;;;;;;;;;;;5087593;28;19920;-86
2022/04/09 14:44:29;;;;;;;;;;;;;;;;;;5066925;28;20379;-85
2022/04/09 14:46:57;;;;;;;;;;;;;;;;;;5084758;28;19921;-83
2022/04/09 14:49:23;;;;;;;;;;;;;;;;;;5067994;28;19917;-86
2022/04/09 14:51:48;;;;;;;;;;;;;;;;;;5065133;28;19931;-87
2022/04/09 14:54:13;;;;;;;;;;;;;;;;;;5067330;28;20287;-87
2022/04/09 14:56:38;;;;;;;;;;;;;;;;;;5070278;28;20569;-86
2022/04/09 14:59:04;;;;;;;;;;;;;;;;;;5092118;28;19908;-87
2022/04/09 15:01:29;;;;;;;;;;;;;;;;;;5062983;28;19926;-86
2022/04/09 15:03:55;;;;;;;;;;;;;;;;;;5075938;28;19908;-85
2022/04/09 15:06:20;;;;;;;;;;;;;;;;;;5069334;28;19912;-88
2022/04/09 15:08:45;;;;;;;;;;;;;;;;;;5078327;28;19953;-87
2022/04/09 15:11:10;;;;;;;;;;;;;;;;;;5077847;28;20283;-88
2022/04/09 15:13:35;;;;;;;;;;;;;;;;;;5068746;28;19913;-86
2022/04/09 15:16:01;;;;;;;;;;;;;;;;;;5064909;28;19928;-86
2022/04/09 15:18:26;;;;;;;;;;;;;;;;;;5093583;28;19923;-89
2022/04/09 15:20:51;;;;;;;;;;;;;;;;;;5078016;28;19919;-86
2022/04/09 15:23:17;;;;;;;;;;;;;;;;;;5073564;28;19912;-83
2022/04/09 15:25:42;;;;;;;;;;;;;;;;;;5072715;28;19919;-87
2022/04/09 15:28:07;;;;;;;;;;;;;;;;;;5094587;28;19934;-87
2022/04/09 15:30:32;;;;;;;;;;;;;;;;;;5072593;28;20486;-86
2022/04/09 15:32:57;;;;;;;;;;;;;;;;;;5062953;28;19912;-86
2022/04/09 15:35:22;;;;;;;;;;;;;;;;;;5086353;28;19919;-88
2022/04/09 15:37:47;;;;;;;;;;;;;;;;;;5062012;28;19969;-88
2022/04/09 15:40:13;;;;;;;;;;;;;;;;;;5089840;28;19912;-84
2022/04/09 15:42:38;;;;;;;;;;;;;;;;;;5094930;28;19912;-85
2022/04/09 15:45:06;;;;;;;;;;;;;;;;;;5081231;28;19951;-86
2022/04/09 15:47:31;;;;;;;;;;;;;;;;;;5083015;28;19920;-85
2022/04/09 15:49:56;;;;;;;;;;;;;;;;;;5070051;28;20328;-85
2022/04/09 15:52:22;;;;;;;;;;;;;;;;;;5086496;28;20411;-85
2022/04/09 15:54:47;;;;;;;;;;;;;;;;;;5068341;28;20019;-84
2022/04/09 15:57:12;;;;;;;;;;;;;;;;;;5077089;28;20252;-85
2022/04/09 15:59:37;;;;;;;;;;;;;;;;;;5080891;28;20029;-85
2022/04/09 16:02:03;;;;;;;;;;;;;;;;;;5096958;28;20057;-85
2022/04/09 16:04:28;;;;;;;;;;;;;;;;;;5077736;28;19908;-85
2022/04/09 16:06:53;;;;;;;;;;;;;;;;;;5077565;28;19912;-85
2022/04/09 16:09:18;;;;;;;;;;;;;;;;;;5077969;28;20363;-85
2022/04/09 16:11:43;;;;;;;;;;;;;;;;;;5099625;28;19912;-85
2022/04/09 16:14:08;;;;;;;;;;;;;;;;;;5077213;28;19916;-84
2022/04/09 16:16:33;;;;;;;;;;;;;;;;;;5076959;28;19912;-85
2022/04/09 16:18:58;;;;;;;;;;;;;;;;;;5077148;28;20375;-84
2022/04/09 16:21:23;;;;;;;;;;;;;;;;;;5091120;28;19916;-84
2022/04/09 16:23:49;;;;;;;;;;;;;;;;;;5077474;28;19916;-84
2022/04/09 16:26:15;;;;;;;;;;;;;;;;;;5080873;28;20019;-84
2022/04/09 16:28:40;;;;;;;;;;;;;;;;;;5073884;28;20005;-84
2022/04/09 16:31:05;;;;;;;;;;;;;;;;;;5076349;28;20375;-87
2022/04/09 16:33:30;;;;;;;;;;;;;;;;;;5069296;28;19920;-88
2022/04/09 16:35:55;;;;;;;;;;;;;;;;;;5065092;28;19916;-88